Time;durP1;ratioP1;P1;durP2;ratioP2;P2;SDS_P1;SDS_P2;PMS_P1;PMS_P2;Temp;Humidity;BMP_temperature;BMP_pressure;BME280_temperature;BME280_humidity;BME280_pressure;Samples;Min_cycle;Max_cycle;Signal;HPM_P1;HPM_P2
2022/05/18 00:02:45;;;;;;;3.50;3.40;;;;;;;;;;6247281;23;20412;-89
2022/05/18 00:05:51;;;;;;;5.90;3.10;;;;;;;;;;6250919;23;20408;-89
2022/05/18 00:08:57;;;;;;;3.70;3.50;;;;;;;;;;6243189;22;20429;-88
2022/05/18 00:12:03;;;;;;;3.30;3.23;;;;;;;;;;6245789;23;20555;-89
2022/05/18 00:15:14;;;;;;;3.10;3.00;;;;;;;;;;6238456;23;20703;-89
2022/05/18 00:18:20;;;;;;;3.23;2.90;;;;;;;;;;6248162;23;20385;-90
2022/05/18 00:21:26;;;;;;;7.60;3.10;;;;;;;;;;6252316;23;20879;-89
2022/05/18 00:24:32;;;;;;;3.80;3.60;;;;;;;;;;6264005;23;20402;-89
2022/05/18 00:27:38;;;;;;;3.87;3.40;;;;;;;;;;6259894;23;20384;-89
2022/05/18 00:30:44;;;;;;;3.77;3.67;;;;;;;;;;6252722;23;20383;-90
2022/05/18 00:33:50;;;;;;;3.70;3.40;;;;;;;;;;6242889;23;20382;-90
2022/05/18 00:36:55;;;;;;;3.40;3.30;;;;;;;;;;6242712;23;20516;-89
2022/05/18 00:40:01;;;;;;;3.30;3.20;;;;;;;;;;6241033;23;20385;-89
2022/05/18 00:43:07;;;;;;;3.30;3.30;;;;;;;;;;6242753;23;20397;-90
2022/05/18 00:46:13;;;;;;;3.40;3.20;;;;;;;;;;6242344;23;20472;-89
2022/05/18 00:49:19;;;;;;;2.90;2.80;;;;;;;;;;6240844;23;20386;-89
2022/05/18 00:52:25;;;;;;;3.43;3.30;;;;;;;;;;6245749;23;20381;-88
2022/05/18 00:55:31;;;;;;;3.87;3.63;;;;;;;;;;6240482;23;20839;-89
2022/05/18 00:58:43;;;;;;;4.00;3.60;;;;;;;;;;6242033;23;20921;-89
2022/05/18 01:01:49;;;;;;;6.33;3.33;;;;;;;;;;6242240;23;20932;-89
2022/05/18 01:04:55;;;;;;;3.60;3.40;;;;;;;;;;6245215;23;20385;-88
2022/05/18 01:08:00;;;;;;;3.43;3.13;;;;;;;;;;6242255;22;21039;-89
2022/05/18 01:11:06;;;;;;;3.50;3.40;;;;;;;;;;6242259;23;20732;-88
2022/05/18 01:14:12;;;;;;;4.10;3.80;;;;;;;;;;6239213;23;20695;-88
2022/05/18 01:17:18;;;;;;;3.93;3.80;;;;;;;;;;6241826;23;20901;-89
2022/05/18 01:20:24;;;;;;;3.80;3.60;;;;;;;;;;6240477;23;20883;-89
2022/05/18 01:23:22;;;;;;;6.17;5.63;;;;;;;;;;6239682;23;20452;-88
2022/05/18 01:26:08;;;;;;;3.40;3.30;;;;;;;;;;6241670;23;20428;-88
2022/05/18 01:29:14;;;;;;;3.73;3.53;;;;;;;;;;6240451;23;20400;-89
2022/05/18 01:32:20;;;;;;;6.50;3.57;;;;;;;;;;6243178;23;20706;-88
2022/05/18 01:35:26;;;;;;;4.23;4.00;;;;;;;;;;6240659;23;21105;-89
2022/05/18 01:38:32;;;;;;;3.60;3.50;;;;;;;;;;6240626;23;20377;-88
2022/05/18 01:41:37;;;;;;;3.53;3.43;;;;;;;;;;6242077;23;20380;-88
2022/05/18 01:44:43;;;;;;;3.50;3.40;;;;;;;;;;6240104;23;20951;-89
2022/05/18 01:47:52;;;;;;;3.77;3.57;;;;;;;;;;6241650;23;20485;-88
2022/05/18 01:50:58;;;;;;;3.40;3.40;;;;;;;;;;6241962;23;20401;-88
2022/05/18 01:54:04;;;;;;;3.37;3.27;;;;;;;;;;6241946;23;20460;-92
2022/05/18 01:57:10;;;;;;;3.50;3.40;;;;;;;;;;6257094;23;20412;-92
2022/05/18 02:00:16;;;;;;;3.80;3.50;;;;;;;;;;6264263;23;20901;-92
2022/05/18 02:03:21;;;;;;;4.10;3.70;;;;;;;;;;6266434;22;20441;-91
2022/05/18 02:06:29;;;;;;;3.17;3.07;;;;;;;;;;6251699;23;20385;-92
2022/05/18 02:09:33;;;;;;;3.60;3.43;;;;;;;;;;6250302;23;20409;-95
2022/05/18 02:12:39;;;;;;;3.60;3.40;;;;;;;;;;6254125;23;20398;-93
2022/05/18 02:15:45;;;;;;;3.60;3.50;;;;;;;;;;6246833;23;20436;-91
2022/05/18 02:18:54;;;;;;;3.83;3.67;;;;;;;;;;6248747;23;20381;-91
2022/05/18 02:22:00;;;;;;;4.33;4.00;;;;;;;;;;6251465;23;20421;-93
2022/05/18 02:25:06;;;;;;;4.87;4.47;;;;;;;;;;6250547;23;20443;-92
2022/05/18 02:28:11;;;;;;;3.67;3.67;;;;;;;;;;6248999;23;20460;-92
2022/05/18 02:31:17;;;;;;;3.80;3.50;;;;;;;;;;6252278;23;20443;-93
2022/05/18 02:34:23;;;;;;;3.60;3.50;;;;;;;;;;6247161;23;20381;-90
2022/05/18 02:37:29;;;;;;;6.30;3.73;;;;;;;;;;6251821;23;20423;-92
2022/05/18 02:40:35;;;;;;;4.00;3.70;;;;;;;;;;6249563;23;20385;-92
2022/05/18 02:43:41;;;;;;;4.03;3.80;;;;;;;;;;6251853;23;20382;-93
2022/05/18 02:46:46;;;;;;;3.43;3.20;;;;;;;;;;6255092;23;20436;-93
2022/05/18 02:49:52;;;;;;;4.00;3.80;;;;;;;;;;6252939;23;20379;-92
2022/05/18 02:52:58;;;;;;;4.30;4.00;;;;;;;;;;6249271;23;20695;-92
2022/05/18 02:56:07;;;;;;;4.50;3.53;;;;;;;;;;6257679;23;20429;-92
2022/05/18 02:59:13;;;;;;;3.40;3.20;;;;;;;;;;6252821;23;20429;-92
2022/05/18 03:02:19;;;;;;;3.57;3.37;;;;;;;;;;6252707;23;20373;-92
2022/05/18 03:05:25;;;;;;;5.50;3.60;;;;;;;;;;6254946;23;20375;-94
2022/05/18 03:08:31;;;;;;;4.30;3.97;;;;;;;;;;6251048;22;20397;-93
2022/05/18 03:11:36;;;;;;;4.60;3.93;;;;;;;;;;6253442;23;20413;-93
2022/05/18 03:14:42;;;;;;;3.93;3.73;;;;;;;;;;6250207;23;20442;-94
2022/05/18 03:17:48;;;;;;;3.57;3.37;;;;;;;;;;6254751;23;20385;-94
2022/05/18 03:24:12;;;;;;;4.00;3.63;;;;;;;;;;6187263;23;20421;-92
2022/05/18 03:27:19;;;;;;;3.70;3.50;;;;;;;;;;6259454;23;20361;-91
2022/05/18 03:30:24;;;;;;;3.33;3.33;;;;;;;;;;6254587;23;20373;-92
2022/05/18 03:33:31;;;;;;;4.57;4.17;;;;;;;;;;6252101;23;20412;-92
2022/05/18 03:36:37;;;;;;;13.77;3.50;;;;;;;;;;6259137;23;20441;-92
2022/05/18 03:39:43;;;;;;;2.90;2.80;;;;;;;;;;6253914;23;20377;-92
2022/05/18 03:42:49;;;;;;;3.87;3.77;;;;;;;;;;6254953;23;20382;-93
2022/05/18 03:45:58;;;;;;;3.87;3.57;;;;;;;;;;6256729;23;20388;-88
2022/05/18 03:49:03;;;;;;;3.63;3.43;;;;;;;;;;6251999;23;20377;-90
2022/05/18 03:52:08;;;;;;;3.20;3.10;;;;;;;;;;6255947;23;20469;-93
2022/05/18 03:55:14;;;;;;;3.43;3.33;;;;;;;;;;6255804;23;20417;-90
2022/05/18 03:58:20;;;;;;;4.00;3.90;;;;;;;;;;6267316;23;20387;-92
2022/05/18 04:01:26;;;;;;;3.90;3.63;;;;;;;;;;6266152;23;20362;-92
2022/05/18 04:04:31;;;;;;;3.97;3.77;;;;;;;;;;6264823;23;20385;-93
2022/05/18 04:07:37;;;;;;;4.57;3.40;;;;;;;;;;6260656;22;20503;-93
2022/05/18 04:10:43;;;;;;;4.17;3.93;;;;;;;;;;6258165;23;20385;-92
2022/05/18 04:13:51;;;;;;;3.70;3.60;;;;;;;;;;6253930;23;20477;-94
2022/05/18 04:16:56;;;;;;;3.80;3.60;;;;;;;;;;6253764;23;20520;-93
2022/05/18 04:20:02;;;;;;;3.47;3.37;;;;;;;;;;6256327;23;20471;-93
2022/05/18 04:23:09;;;;;;;4.07;3.97;;;;;;;;;;6262371;23;20509;-92
2022/05/18 04:26:15;;;;;;;3.43;3.33;;;;;;;;;;6251492;23;20404;-92
2022/05/18 04:29:21;;;;;;;3.60;3.30;;;;;;;;;;6254440;23;20411;-92
2022/05/18 04:32:29;;;;;;;3.67;3.53;;;;;;;;;;6257506;23;20408;-89
2022/05/18 04:35:21;;;;;;;3.30;3.10;;;;;;;;;;6258015;23;20437;-90
2022/05/18 04:37:48;;;;;;;4.20;3.83;;;;;;;;;;6229272;23;20384;-91
2022/05/18 04:40:34;;;;;;;4.87;3.87;;;;;;;;;;6228870;23;20466;-93
2022/05/18 04:43:40;;;;;;;4.03;3.70;;;;;;;;;;6259549;23;20382;-94
2022/05/18 04:46:45;;;;;;;4.30;4.20;;;;;;;;;;6254461;23;20381;-93
2022/05/18 04:49:51;;;;;;;5.67;3.57;;;;;;;;;;6263526;23;20388;-93
2022/05/18 04:52:57;;;;;;;3.90;3.60;;;;;;;;;;6267809;23;20388;-92
2022/05/18 04:56:03;;;;;;;3.30;3.20;;;;;;;;;;6267119;22;20447;-91
2022/05/18 04:59:09;;;;;;;3.67;3.47;;;;;;;;;;6266472;23;20389;-93
2022/05/18 05:02:15;;;;;;;3.50;3.30;;;;;;;;;;6268117;23;20385;-92
2022/05/18 05:05:28;;;;;;;3.60;3.50;;;;;;;;;;6264064;23;20381;-92
2022/05/18 05:08:26;;;;;;;3.93;3.83;;;;;;;;;;6260681;22;20401;-92
2022/05/18 05:11:34;;;;;;;3.43;3.33;;;;;;;;;;6263330;23;20385;-91
2022/05/18 05:14:40;;;;;;;3.17;2.90;;;;;;;;;;6263733;23;20387;-91
2022/05/18 05:17:46;;;;;;;3.67;3.47;;;;;;;;;;6264637;23;20393;-91
2022/05/18 05:20:54;;;;;;;4.07;3.70;;;;;;;;;;6263018;23;20388;-88
2022/05/18 05:23:59;;;;;;;3.03;2.83;;;;;;;;;;6257810;23;20431;-93
2022/05/18 05:27:05;;;;;;;3.30;3.20;;;;;;;;;;6261117;23;20386;-93
2022/05/18 05:30:17;;;;;;;3.43;3.33;;;;;;;;;;6258447;23;20391;-92
2022/05/18 05:33:23;;;;;;;3.57;3.30;;;;;;;;;;6261563;23;20388;-93
2022/05/18 05:36:31;;;;;;;3.33;3.13;;;;;;;;;;6261342;23;20485;-94
2022/05/18 05:39:36;;;;;;;3.20;3.10;;;;;;;;;;6259320;23;20408;-91
2022/05/18 05:42:45;;;;;;;3.40;3.20;;;;;;;;;;6260539;23;20374;-95
2022/05/18 05:45:48;;;;;;;5.10;3.30;;;;;;;;;;6260562;23;20381;-94
2022/05/18 05:48:54;;;;;;;3.27;3.07;;;;;;;;;;6257864;23;20385;-92
2022/05/18 05:52:00;;;;;;;3.00;2.80;;;;;;;;;;6264103;23;20377;-92
2022/05/18 05:55:06;;;;;;;2.97;2.97;;;;;;;;;;6262839;23;20427;-90
2022/05/18 05:58:15;;;;;;;3.00;2.90;;;;;;;;;;6266542;22;20462;-92
2022/05/18 06:01:21;;;;;;;3.60;3.40;;;;;;;;;;6264255;22;20405;-91
2022/05/18 06:04:27;;;;;;;3.27;3.17;;;;;;;;;;6258574;23;20389;-91
2022/05/18 06:07:35;;;;;;;3.33;2.97;;;;;;;;;;6259630;22;20471;-92
2022/05/18 06:10:38;;;;;;;3.37;3.07;;;;;;;;;;6260715;23;20393;-93
2022/05/18 06:13:46;;;;;;;3.00;2.90;;;;;;;;;;6263553;23;20392;-94
2022/05/18 06:16:32;;;;;;;3.40;3.30;;;;;;;;;;6260098;23;20443;-93
2022/05/18 06:18:59;;;;;;;3.30;3.10;;;;;;;;;;6234902;23;20370;-90
2022/05/18 06:21:31;;;;;;;4.83;3.23;;;;;;;;;;6232255;23;20528;-93
2022/05/18 06:24:00;;;;;;;2.80;2.60;;;;;;;;;;6258765;23;20399;-93
2022/05/18 06:26:46;;;;;;;2.87;2.77;;;;;;;;;;6232585;23;20741;-94
2022/05/18 06:29:52;;;;;;;3.03;2.90;;;;;;;;;;6259549;23;20380;-90
2022/05/18 06:32:58;;;;;;;3.03;2.70;;;;;;;;;;6261998;23;20412;-93
2022/05/18 06:36:05;;;;;;;5.50;3.57;;;;;;;;;;6260602;23;20461;-93
2022/05/18 06:39:11;;;;;;;4.50;2.63;;;;;;;;;;6261450;23;20377;-92
2022/05/18 06:42:17;;;;;;;2.40;2.30;;;;;;;;;;6263497;22;20459;-95
2022/05/18 06:45:24;;;;;;;2.90;2.70;;;;;;;;;;6320484;22;20383;-93
2022/05/18 06:48:33;;;;;;;2.57;2.50;;;;;;;;;;6325612;22;20388;-95
2022/05/18 06:51:39;;;;;;;3.00;2.90;;;;;;;;;;6324476;22;20371;-94
2022/05/18 06:54:46;;;;;;;2.23;2.13;;;;;;;;;;6327960;22;20375;-93
2022/05/18 06:57:55;;;;;;;2.43;2.33;;;;;;;;;;6325376;22;20384;-93
2022/05/18 07:01:03;;;;;;;3.83;2.23;;;;;;;;;;6327381;22;20465;-87
2022/05/18 07:03:46;;;;;;;5.47;2.93;;;;;;;;;;6288103;22;20448;-90
2022/05/18 07:06:33;;;;;;;2.80;2.70;;;;;;;;;;6267738;22;20393;-93
2022/05/18 07:09:40;;;;;;;2.33;2.33;;;;;;;;;;6261356;23;20428;-94
2022/05/18 07:12:47;;;;;;;3.30;3.00;;;;;;;;;;6259431;23;20382;-89
2022/05/18 07:15:58;;;;;;;3.60;2.47;;;;;;;;;;6261238;23;20433;-91
2022/05/18 07:19:04;;;;;;;2.13;2.13;;;;;;;;;;6261316;23;20387;-94
2022/05/18 07:22:14;;;;;;;2.70;2.60;;;;;;;;;;6266078;22;20392;-95
2022/05/18 07:25:23;;;;;;;2.30;2.20;;;;;;;;;;6264558;23;20388;-92
2022/05/18 07:28:29;;;;;;;3.13;2.93;;;;;;;;;;6267789;23;20365;-93
2022/05/18 07:31:21;;;;;;;2.67;2.57;;;;;;;;;;6269548;23;20707;-93
2022/05/18 07:33:48;;;;;;;3.10;2.90;;;;;;;;;;6265456;23;20448;-95
2022/05/18 07:36:15;;;;;;;2.40;2.30;;;;;;;;;;6263623;22;20408;-92
2022/05/18 07:38:44;;;;;;;3.50;2.60;;;;;;;;;;6261874;22;20409;-92
2022/05/18 07:41:13;;;;;;;2.73;2.63;;;;;;;;;;6267870;23;20353;-91
2022/05/18 07:43:39;;;;;;;2.50;2.50;;;;;;;;;;6264289;23;20390;-91
2022/05/18 07:46:14;;;;;;;2.30;2.23;;;;;;;;;;6264181;22;20456;-91
2022/05/18 07:49:07;;;;;;;2.43;2.40;;;;;;;;;;6255956;22;20444;-92
2022/05/18 07:51:43;;;;;;;2.17;2.17;;;;;;;;;;6297344;22;20349;-91
2022/05/18 07:54:09;;;;;;;2.47;2.30;;;;;;;;;;6269806;22;20395;-89
2022/05/18 07:57:09;;;;;;;2.67;2.67;;;;;;;;;;6285246;22;20479;-90
2022/05/18 08:00:15;;;;;;;2.70;2.60;;;;;;;;;;6284319;22;20404;-91
2022/05/18 08:03:24;;;;;;;2.67;2.57;;;;;;;;;;6288873;22;20392;-94
2022/05/18 08:06:28;;;;;;;2.67;2.60;;;;;;;;;;6294032;22;20419;-92
2022/05/18 08:15:05;;;;;;;2.77;2.67;;;;;;;;;;6292487;22;20408;-92
2022/05/18 08:15:56;;;;;;;2.60;2.50;;;;;;;;;;6293361;22;20388;-93
2022/05/18 08:18:50;;;;;;;2.83;2.83;;;;;;;;;;6274622;22;20946;-91
2022/05/18 08:21:56;;;;;;;2.00;2.00;;;;;;;;;;6275014;22;20860;-91
2022/05/18 08:25:02;;;;;;;2.73;2.70;;;;;;;;;;6265375;22;20384;-90
2022/05/18 08:28:09;;;;;;;3.73;3.63;;;;;;;;;;6275225;22;20396;-90
2022/05/18 08:31:17;;;;;;;3.07;2.87;;;;;;;;;;6274577;22;20411;-92
2022/05/18 08:34:22;;;;;;;2.77;2.67;;;;;;;;;;6278824;22;20384;-90
2022/05/18 08:37:29;;;;;;;2.50;2.40;;;;;;;;;;6283396;22;20388;-90
2022/05/18 08:40:50;;;;;;;3.60;2.77;;;;;;;;;;6278840;22;20388;-89
2022/05/18 08:44:02;;;;;;;2.67;2.67;;;;;;;;;;6281134;22;20847;-91
2022/05/18 08:47:05;;;;;;;2.43;2.30;;;;;;;;;;6284513;22;20460;-91
2022/05/18 08:49:51;;;;;;;2.63;2.20;;;;;;;;;;6258771;22;20466;-90
2022/05/18 08:52:29;;;;;;;2.90;2.80;;;;;;;;;;6260414;22;20399;-92
2022/05/18 08:55:17;;;;;;;2.40;2.40;;;;;;;;;;6260226;22;20395;-89
2022/05/18 08:58:03;;;;;;;4.70;3.57;;;;;;;;;;6262102;22;20384;-94
2022/05/18 09:00:34;;;;;;;2.70;2.60;;;;;;;;;;6254465;22;20391;-93
2022/05/18 09:03:16;;;;;;;3.53;3.33;;;;;;;;;;6259914;22;20392;-91
2022/05/18 09:08:38;;;;;;;3.03;2.93;;;;;;;;;;6328045;22;20474;-93
2022/05/18 09:11:27;;;;;;;2.37;2.37;;;;;;;;;;6238830;22;20508;-93
2022/05/18 09:14:30;;;;;;;2.27;2.27;;;;;;;;;;6231316;23;20409;-93
2022/05/18 09:17:15;;;;;;;2.63;2.63;;;;;;;;;;6228774;23;20377;-90
2022/05/18 09:20:07;;;;;;;2.43;2.43;;;;;;;;;;6234495;23;20378;-93
2022/05/18 09:22:43;;;;;;;2.27;2.20;;;;;;;;;;6239451;23;20390;-95
2022/05/18 09:25:36;;;;;;;2.97;2.87;;;;;;;;;;6256898;23;20433;-91
2022/05/18 09:28:25;;;;;;;2.20;2.10;;;;;;;;;;6235288;23;20382;-94
2022/05/18 09:31:11;;;;;;;2.07;2.07;;;;;;;;;;6231567;23;20421;-91
2022/05/18 09:34:02;;;;;;;2.70;2.67;;;;;;;;;;6256908;23;20366;-94
2022/05/18 09:36:59;;;;;;;2.60;2.60;;;;;;;;;;6239607;23;20381;-90
2022/05/18 09:39:36;;;;;;;4.73;2.83;;;;;;;;;;6227053;23;20396;-91
2022/05/18 09:42:08;;;;;;;2.00;2.00;;;;;;;;;;6261721;23;20424;-92
2022/05/18 09:44:50;;;;;;;3.87;3.67;;;;;;;;;;6232352;23;20385;-91
2022/05/18 09:47:18;;;;;;;2.47;2.37;;;;;;;;;;6249076;23;20445;-91
2022/05/18 09:49:46;;;;;;;2.70;2.60;;;;;;;;;;6224381;23;20390;-91
2022/05/18 09:52:17;;;;;;;2.53;2.53;;;;;;;;;;6231168;23;20372;-91
2022/05/18 09:55:14;;;;;;;;;;;;;;;;;;;;;
2022/05/18 09:57:51;;;;;;;2.40;2.30;;;;;;;;;;6252672;23;20382;-88
2022/05/18 10:09:14;;;;;;;2.20;2.10;;;;;;;;;;6253326;23;20424;-94
2022/05/18 10:11:43;;;;;;;3.30;3.10;;;;;;;;;;6253511;22;20523;-91
2022/05/18 10:14:34;;;;;;;2.83;2.73;;;;;;;;;;6257926;22;20388;-92
2022/05/18 10:17:23;;;;;;;;;;;;;;;;;;;;;
2022/05/18 10:19:56;;;;;;;3.60;3.47;;;;;;;;;;6187247;23;20981;-90
2022/05/18 10:22:42;;;;;;;2.60;2.60;;;;;;;;;;6228375;22;20471;-88
2022/05/18 10:25:49;;;;;;;2.60;2.50;;;;;;;;;;6285747;22;20454;-90
2022/05/18 10:31:32;;;;;;;4.03;3.93;;;;;;;;;;6269796;22;20564;-91
2022/05/18 10:34:47;;;;;;;2.10;2.10;;;;;;;;;;6286414;22;20873;-93
2022/05/18 10:37:55;;;;;;;2.67;2.50;;;;;;;;;;6276852;22;20459;-91
2022/05/18 10:41:07;;;;;;;2.47;2.47;;;;;;;;;;6287535;22;20399;-93
2022/05/18 10:47:44;;;;;;;4.13;3.93;;;;;;;;;;6144153;23;20492;-92
2022/05/18 10:50:57;;;;;;;2.30;2.30;;;;;;;;;;6289892;22;20851;-92
2022/05/18 10:54:03;;;;;;;3.43;3.23;;;;;;;;;;6288383;22;20389;-93
2022/05/18 10:57:09;;;;;;;2.73;2.53;;;;;;;;;;6289295;22;20817;-92
2022/05/18 11:00:38;;;;;;;2.93;2.83;;;;;;;;;;6295586;22;20411;-92
2022/05/18 12:03:14;;;;;;;3.90;3.60;;;;;;;;;;6266374;22;20479;-88
2022/05/18 12:19:55;;;;;;;2.40;2.37;;;;;;;;;;6267518;22;20868;-91
2022/05/18 12:28:17;;;;;;;3.20;2.97;;;;;;;;;;6341547;22;20470;-92
2022/05/18 12:31:14;;;;;;;2.53;2.50;;;;;;;;;;6273975;22;20391;-92
2022/05/18 12:34:04;;;;;;;3.03;2.70;;;;;;;;;;6312872;22;21116;-93
2022/05/18 12:36:54;;;;;;;2.57;2.37;;;;;;;;;;6310136;22;20481;-90
2022/05/18 12:39:22;;;;;;;2.77;2.67;;;;;;;;;;6283832;22;20419;-93
2022/05/18 12:41:56;;;;;;;2.57;2.47;;;;;;;;;;6284491;22;20702;-93
2022/05/18 12:44:24;;;;;;;3.43;2.87;;;;;;;;;;6291376;22;20387;-92
2022/05/18 12:46:54;;;;;;;4.47;4.17;;;;;;;;;;6324320;22;20420;-88
2022/05/18 12:49:35;;;;;;;2.80;2.60;;;;;;;;;;6289495;22;20391;-90
2022/05/18 12:52:17;;;;;;;2.53;2.43;;;;;;;;;;6306589;22;20450;-91
2022/05/18 12:54:51;;;;;;;7.83;2.93;;;;;;;;;;6290002;22;20808;-92
2022/05/18 12:57:26;;;;;;;3.00;3.00;;;;;;;;;;6283685;22;20399;-92
2022/05/18 13:00:11;;;;;;;2.47;2.47;;;;;;;;;;6286545;22;20372;-90
2022/05/18 13:03:29;;;;;;;2.43;2.33;;;;;;;;;;6287000;22;20391;-93
2022/05/18 13:09:18;;;;;;;2.30;2.30;;;;;;;;;;6309235;22;20388;-93
2022/05/18 13:14:52;;;;;;;;;;;;;;;;;;;;;
2022/05/18 13:17:24;;;;;;;3.33;3.10;;;;;;;;;;6316745;22;20396;-93
2022/05/18 13:20:13;;;;;;;2.40;2.30;;;;;;;;;;6318097;22;20445;-94
2022/05/18 13:26:03;;;;;;;2.50;2.50;;;;;;;;;;6271627;22;20423;-92
2022/05/18 13:28:59;;;;;;;2.60;2.47;;;;;;;;;;6297729;22;20449;-91
2022/05/18 13:34:58;;;;;;;3.03;2.60;;;;;;;;;;6315022;22;20368;-93
2022/05/18 13:40:53;;;;;;;3.70;3.53;;;;;;;;;;6306358;22;20465;-95
2022/05/18 13:44:06;;;;;;;2.47;2.47;;;;;;;;;;6291795;22;20372;-91
2022/05/18 13:52:15;;;;;;;2.30;2.30;;;;;;;;;;6288996;22;20482;-88
2022/05/18 14:06:21;;;;;;;2.60;2.40;;;;;;;;;;6252930;23;20433;-93
2022/05/18 14:09:38;;;;;;;3.43;3.33;;;;;;;;;;6227521;23;20387;-92
2022/05/18 14:18:24;;;;;;;2.50;2.47;;;;;;;;;;6271844;22;20451;-91
2022/05/18 14:21:23;;;;;;;2.60;2.50;;;;;;;;;;6281159;22;20388;-86
2022/05/18 14:40:53;;;;;;;2.60;2.50;;;;;;;;;;6283599;22;20376;-91
2022/05/18 14:43:40;;;;;;;2.47;2.37;;;;;;;;;;6254993;22;20450;-91
2022/05/18 14:46:26;;;;;;;2.60;2.60;;;;;;;;;;6284751;22;20446;-90
2022/05/18 14:49:01;;;;;;;4.00;3.70;;;;;;;;;;6258613;22;20483;-89
2022/05/18 14:51:56;;;;;;;2.70;2.70;;;;;;;;;;6280450;22;20948;-92
2022/05/18 14:54:41;;;;;;;2.50;2.40;;;;;;;;;;6259459;22;20412;-93
2022/05/18 14:57:12;;;;;;;2.83;2.80;;;;;;;;;;6256542;22;20457;-92
2022/05/18 14:59:46;;;;;;;2.53;2.53;;;;;;;;;;6279313;22;20392;-92
2022/05/18 15:02:16;;;;;;;2.67;2.57;;;;;;;;;;6248604;22;20534;-91
2022/05/18 15:04:57;;;;;;;2.80;2.47;;;;;;;;;;6250953;22;20440;-92
2022/05/18 15:08:02;;;;;;;2.93;2.83;;;;;;;;;;6280947;22;20393;-90
2022/05/18 15:10:39;;;;;;;3.17;3.00;;;;;;;;;;6253071;22;20392;-90
2022/05/18 15:13:19;;;;;;;2.93;2.77;;;;;;;;;;6229700;22;20848;-91
2022/05/18 15:15:51;;;;;;;4.00;2.70;;;;;;;;;;6256993;22;20414;-90
2022/05/18 15:19:06;;;;;;;3.10;2.90;;;;;;;;;;6286487;22;20384;-88
2022/05/18 15:24:58;;;;;;;2.90;2.80;;;;;;;;;;6341471;22;20450;-91
2022/05/18 15:38:32;;;;;;;4.93;4.53;;;;;;;;;;6314884;22;20933;-90
2022/05/18 15:41:39;;;;;;;3.97;3.77;;;;;;;;;;6271050;22;20759;-90
2022/05/18 15:45:30;;;;;;;3.00;2.80;;;;;;;;;;6326604;22;20423;-89
2022/05/18 15:48:01;;;;;;;2.93;2.90;;;;;;;;;;6304018;22;20536;-89
2022/05/18 15:51:10;;;;;;;;;;;;;;;;;;;;;
2022/05/18 15:56:39;;;;;;;2.80;2.80;;;;;;;;;;6318506;22;20452;-92
2022/05/18 15:59:50;;;;;;;2.30;2.30;;;;;;;;;;6354557;22;20454;-90
2022/05/18 16:03:12;;;;;;;;;;;;;;;;;;;;;
2022/05/18 16:12:27;;;;;;;4.23;3.93;;;;;;;;;;6289529;22;20672;-92
2022/05/18 16:18:17;;;;;;;4.00;3.80;;;;;;;;;;6309934;22;20499;-92
2022/05/18 16:21:21;;;;;;;3.40;3.17;;;;;;;;;;6317765;22;20453;-93
2022/05/18 16:24:27;;;;;;;3.37;3.17;;;;;;;;;;6320103;22;20418;-92
2022/05/18 16:27:33;;;;;;;4.60;4.40;;;;;;;;;;6322522;22;20387;-92
2022/05/18 16:30:38;;;;;;;4.00;3.83;;;;;;;;;;6323625;22;20523;-93
2022/05/18 16:33:44;;;;;;;4.00;3.70;;;;;;;;;;6323762;22;20431;-91
2022/05/18 16:36:53;;;;;;;3.60;3.03;;;;;;;;;;6324453;22;20356;-90
2022/05/18 16:40:02;;;;;;;2.80;2.60;;;;;;;;;;6310712;22;20391;-93
2022/05/18 16:43:04;;;;;;;5.87;5.33;;;;;;;;;;6293059;22;20433;-91
2022/05/18 16:48:23;;;;;;;6.20;5.80;;;;;;;;;;6315701;22;20465;-93
2022/05/18 16:50:50;;;;;;;6.70;6.20;;;;;;;;;;6294084;22;20152;-92
2022/05/18 16:53:16;;;;;;;7.60;7.10;;;;;;;;;;6294967;22;20414;-92
2022/05/18 16:55:44;;;;;;;7.23;6.93;;;;;;;;;;6313172;22;20447;-93
2022/05/18 16:58:46;;;;;;;7.77;7.27;;;;;;;;;;6322136;22;20372;-92
2022/05/18 17:01:42;;;;;;;4.73;3.30;;;;;;;;;;6321479;22;20384;-94
2022/05/18 17:05:57;;;;;;;13.93;12.73;;;;;;;;;;6322176;22;20379;-93
2022/05/18 17:08:43;;;;;;;11.70;10.70;;;;;;;;;;6314141;22;20726;-93
2022/05/18 17:10:57;;;;;;;7.50;7.10;;;;;;;;;;6286734;22;20376;-95
2022/05/18 17:14:03;;;;;;;5.53;5.20;;;;;;;;;;6286163;22;20408;-92
2022/05/18 17:17:12;;;;;;;4.53;4.27;;;;;;;;;;6286986;22;20376;-94
2022/05/18 17:20:17;;;;;;;8.17;7.77;;;;;;;;;;6285188;22;20380;-91
2022/05/18 17:23:23;;;;;;;8.83;8.00;;;;;;;;;;6287393;22;20388;-92
2022/05/18 17:26:31;;;;;;;6.53;6.17;;;;;;;;;;6284579;22;20481;-92
2022/05/18 17:29:43;;;;;;;11.53;10.77;;;;;;;;;;6289426;22;20456;-93
2022/05/18 17:32:50;;;;;;;25.73;14.20;;;;;;;;;;6285152;22;20384;-92
2022/05/18 17:35:56;;;;;;;21.67;19.77;;;;;;;;;;6285261;22;20440;-93
2022/05/18 17:39:04;;;;;;;27.40;24.73;;;;;;;;;;6285291;22;20432;-93
2022/05/18 17:42:08;;;;;;;29.70;26.77;;;;;;;;;;6286672;22;20398;-91
2022/05/18 17:45:13;;;;;;;16.50;14.87;;;;;;;;;;6284925;22;20385;-93
2022/05/18 17:48:19;;;;;;;8.93;7.07;;;;;;;;;;6284149;22;20399;-95
2022/05/18 17:51:25;;;;;;;6.10;5.60;;;;;;;;;;6282673;22;20381;-95
2022/05/18 17:54:31;;;;;;;6.67;6.07;;;;;;;;;;6284229;22;20380;-92
2022/05/18 17:57:19;;;;;;;10.23;9.07;;;;;;;;;;6252013;23;20408;-94
2022/05/18 18:00:11;;;;;;;7.47;6.90;;;;;;;;;;6254110;23;20690;-94
2022/05/18 19:00:40;;;;;;;5.90;5.43;;;;;;;;;;6245610;23;20446;-90
2022/05/18 19:03:52;;;;;;;7.47;6.83;;;;;;;;;;6241998;23;20384;-90
2022/05/18 19:06:58;;;;;;;4.43;4.10;;;;;;;;;;6243064;23;20448;-91
2022/05/18 19:10:11;;;;;;;5.90;5.60;;;;;;;;;;6211913;23;20405;-91
2022/05/18 19:13:26;;;;;;;8.37;6.00;;;;;;;;;;6213089;23;20378;-91
2022/05/18 19:16:12;;;;;;;6.53;6.13;;;;;;;;;;6211502;23;20455;-91
2022/05/18 19:19:02;;;;;;;6.10;5.50;;;;;;;;;;6164801;23;20395;-91
2022/05/18 19:21:28;;;;;;;6.73;6.33;;;;;;;;;;6188779;23;20378;-91
2022/05/18 19:23:56;;;;;;;8.70;6.97;;;;;;;;;;6191764;23;20401;-91
2022/05/18 19:27:05;;;;;;;;;;;;;;;;;;;;;
2022/05/18 19:30:06;;;;;;;9.03;6.93;;;;;;;;;;6161464;23;20533;-92
2022/05/18 19:33:09;;;;;;;7.10;6.70;;;;;;;;;;6212644;23;20488;-91
2022/05/18 19:36:21;;;;;;;6.57;6.17;;;;;;;;;;6233165;22;20401;-92
2022/05/18 19:39:33;;;;;;;7.57;6.97;;;;;;;;;;6260512;22;20454;-93
2022/05/18 19:43:07;;;;;;;;;;;;;;;;;;;;;
2022/05/18 19:46:13;;;;;;;9.10;6.90;;;;;;;;;;6088183;23;20423;-95
2022/05/18 19:53:07;;;;;;;9.60;6.83;;;;;;;;;;6179948;23;20419;-93
2022/05/18 19:56:16;;;;;;;8.90;5.27;;;;;;;;;;6192581;23;20447;-90
2022/05/18 19:59:12;;;;;;;;;;;;;;;;;;;;;
2022/05/18 20:01:51;;;;;;;6.07;5.57;;;;;;;;;;6318677;22;20383;-94
2022/05/18 20:04:26;;;;;;;7.37;6.00;;;;;;;;;;6299950;22;20447;-94
2022/05/18 20:07:12;;;;;;;6.03;5.57;;;;;;;;;;6327664;22;20419;-93
2022/05/18 20:12:44;;;;;;;;;;;;;;;;;;;;;
